createdAt,value
2023-04-14T00:01:22.591Z,97771.28
2023-04-14T00:04:25.557Z,97757.88
2023-04-14T00:07:28.286Z,97757.56
2023-04-14T00:10:30.804Z,97753.56
2023-04-14T00:13:34.720Z,97754.38
2023-04-14T00:16:39.421Z,97760.91
2023-04-14T00:19:41.961Z,97753.75
2023-04-14T00:22:44.521Z,97760.59
2023-04-14T00:25:47.146Z,97761.56
2023-04-14T00:28:51.172Z,97762.19
2023-04-14T00:31:53.848Z,97768.09
2023-04-14T00:34:57.058Z,97765.69
2023-04-14T00:37:59.544Z,97762.28
2023-04-14T00:41:02.211Z,97777.13
2023-04-14T00:44:06.530Z,97773.56
2023-04-14T00:47:09.080Z,97779.94
2023-04-14T00:50:12.040Z,97783.28
2023-04-14T00:53:15.364Z,97778.75
2023-04-14T00:56:18.605Z,97782.47
2023-04-14T00:59:22.696Z,97786.53
2023-04-14T01:02:26.301Z,97779.78
2023-04-14T01:05:28.844Z,97801.16
2023-04-14T01:08:31.984Z,97802.88
2023-04-14T01:11:39.786Z,97798.91
2023-04-14T01:14:48.359Z,97803.84
2023-04-14T01:17:58.650Z,97809.19
2023-04-14T01:21:05.403Z,97815.25
2023-04-14T01:24:31.767Z,97815.97
2023-04-14T01:27:40.662Z,97812.09
2023-04-14T01:30:58.241Z,97807.91
2023-04-14T01:34:06.859Z,97821.09
2023-04-14T01:37:15.412Z,97827.44
2023-04-14T01:40:19.734Z,97825.91
2023-04-14T01:43:26.535Z,97824.94
2023-04-14T01:46:29.179Z,97825.06
2023-04-14T01:49:34.277Z,97820.16
2023-04-14T01:52:37.449Z,97834.22
2023-04-14T01:55:42.266Z,97835.06
2023-04-14T01:58:46.670Z,97838.56
2023-04-14T02:01:50.430Z,97840.75
2023-04-14T02:04:54.277Z,97837.25
2023-04-14T02:07:58.143Z,97834.16
2023-04-14T02:11:02.051Z,97832.88
2023-04-14T02:14:05.311Z,97833.47
2023-04-14T02:17:08.779Z,97831.97
2023-04-14T02:20:14.815Z,97832.69
2023-04-14T02:23:17.344Z,97839.22
2023-04-14T02:26:22.783Z,97833.69
2023-04-14T02:29:26.312Z,97838.00
2023-04-14T02:32:31.041Z,97835.50
2023-04-14T02:35:39.908Z,97835.50
2023-04-14T02:38:47.131Z,97831.38
2023-04-14T02:41:54.568Z,97839.09
2023-04-14T02:45:01.469Z,97834.59
2023-04-14T02:48:09.652Z,97834.38
2023-04-14T02:51:14.614Z,97840.50
2023-04-14T02:54:19.282Z,97842.91
2023-04-14T02:57:23.138Z,97840.50
2023-04-14T03:00:26.005Z,97838.28
2023-04-14T03:03:29.363Z,97839.88
2023-04-14T03:06:33.426Z,97842.09
2023-04-14T03:09:36.385Z,97834.19
2023-04-14T03:12:39.146Z,97831.91
2023-04-14T03:15:42.871Z,97843.22
2023-04-14T03:18:46.400Z,97847.03
2023-04-14T03:21:51.032Z,97837.00
2023-04-14T03:24:58.074Z,97840.91
2023-04-14T03:28:02.736Z,97841.50
2023-04-14T03:31:06.339Z,97836.41
2023-04-14T03:34:09.874Z,97841.66
2023-04-14T03:37:16.302Z,97843.41
2023-04-14T03:40:18.932Z,97832.50
2023-04-14T03:43:22.762Z,97842.19
2023-04-14T03:46:28.425Z,97831.28
2023-04-14T03:49:33.286Z,97828.09
2023-04-14T03:52:39.233Z,97828.69
2023-04-14T03:55:43.850Z,97823.28
2023-04-14T03:58:49.271Z,97825.09
2023-04-14T04:01:52.212Z,97824.47
2023-04-14T04:04:56.814Z,97826.88
2023-04-14T04:08:03.046Z,97833.47
2023-04-14T04:11:07.088Z,97839.06
2023-04-14T04:14:10.738Z,97842.28
2023-04-14T04:17:15.404Z,97843.47
2023-04-14T04:20:18.209Z,97842.03
2023-04-14T04:23:22.765Z,97838.97
2023-04-14T04:26:25.782Z,97836.66
2023-04-14T04:29:28.575Z,97836.81
2023-04-14T04:32:31.819Z,97841.81
2023-04-14T04:35:35.827Z,97844.31
2023-04-14T04:38:39.791Z,97847.59
2023-04-14T04:41:42.448Z,97844.41
2023-04-14T04:44:45.022Z,97841.81
2023-04-14T04:47:47.596Z,97843.63
2023-04-14T04:50:50.392Z,97847.19
2023-04-14T04:53:54.391Z,97863.25
2023-04-14T04:56:57.553Z,97859.22
2023-04-14T05:00:00.643Z,97865.53
2023-04-14T05:03:03.458Z,97849.66
2023-04-14T05:06:06.988Z,97860.47
2023-04-14T05:09:10.992Z,97861.84
2023-04-14T05:12:13.775Z,97870.09
2023-04-14T05:15:16.671Z,97872.00
2023-04-14T05:18:19.523Z,97866.19
2023-04-14T05:21:22.404Z,97863.22
2023-04-14T05:24:27.331Z,97869.31
2023-04-14T05:27:30.070Z,97864.03
2023-04-14T05:30:32.721Z,97871.13
2023-04-14T05:33:36.378Z,97868.34
2023-04-14T05:36:39.391Z,97876.06
2023-04-14T05:39:43.521Z,97884.78
2023-04-14T05:42:46.056Z,97884.38
2023-04-14T05:45:48.728Z,97893.91
2023-04-14T05:48:51.472Z,97896.69
2023-04-14T05:51:56.008Z,97903.00
2023-04-14T05:55:00.007Z,97905.78
2023-04-14T05:58:02.750Z,97909.41
2023-04-14T06:01:06.343Z,97902.16
2023-04-14T06:04:09.493Z,97912.13
2023-04-14T06:07:12.460Z,97920.56
2023-04-14T06:10:16.426Z,97928.34
2023-04-14T06:13:22.796Z,97926.38
2023-04-14T06:16:25.771Z,97919.13
2023-04-14T06:19:28.492Z,97913.19
2023-04-14T06:22:31.332Z,97911.28
2023-04-14T06:25:35.246Z,97919.13
2023-04-14T06:28:37.786Z,97926.63
2023-04-14T06:31:40.537Z,97926.94
2023-04-14T06:34:43.085Z,97923.25
2023-04-14T06:37:45.865Z,97918.03
2023-04-14T06:40:51.917Z,97912.84
2023-04-14T06:43:55.846Z,97912.31
2023-04-14T06:46:59.166Z,97909.44
2023-04-14T06:50:03.253Z,97908.56
2023-04-14T06:53:07.108Z,97907.16
2023-04-14T06:56:11.159Z,97906.28
2023-04-14T06:59:14.078Z,97902.00
2023-04-14T07:02:16.644Z,97895.16
2023-04-14T07:05:19.777Z,97903.66
2023-04-14T07:08:22.835Z,97891.00
2023-04-14T07:11:26.922Z,97893.84
2023-04-14T07:14:29.558Z,97889.34
2023-04-14T07:17:32.664Z,97886.09
2023-04-14T07:20:35.299Z,97880.09
2023-04-14T07:23:37.894Z,97880.97
2023-04-14T07:26:42.894Z,97876.63
2023-04-14T07:29:45.447Z,97870.53
2023-04-14T07:32:48.331Z,97873.47
2023-04-14T07:36:01.893Z,97879.19
2023-04-14T07:39:05.302Z,97871.09
2023-04-14T07:42:09.192Z,97873.91
2023-04-14T07:45:12.025Z,97875.94
2023-04-14T07:48:14.618Z,97880.69
2023-04-14T07:51:17.355Z,97882.56
2023-04-14T07:54:20.139Z,97885.78
2023-04-14T07:57:24.042Z,97886.63
2023-04-14T08:00:27.107Z,97882.09
2023-04-14T08:03:29.869Z,97885.41
2023-04-14T08:06:32.916Z,97883.16
2023-04-14T08:09:35.781Z,97883.53
2023-04-14T08:12:39.914Z,97895.22
2023-04-14T08:15:42.569Z,97888.66
2023-04-14T08:18:45.260Z,97886.63
2023-04-14T08:21:47.842Z,97881.84
2023-04-14T08:24:50.624Z,97883.00
2023-04-14T08:27:54.608Z,97880.72
2023-04-14T08:30:57.369Z,97877.66
2023-04-14T08:34:00.437Z,97884.81
2023-04-14T08:37:03.146Z,97874.78
2023-04-14T08:40:07.740Z,97877.16
2023-04-14T08:43:14.576Z,97873.22
2023-04-14T08:46:19.339Z,97869.75
2023-04-14T08:49:29.890Z,97863.72
2023-04-14T08:52:34.335Z,97865.81
2023-04-14T08:55:38.092Z,97864.25
2023-04-14T08:58:43.181Z,97859.06
2023-04-14T09:01:46.758Z,97860.13
2023-04-14T09:04:49.961Z,97861.44
2023-04-14T09:07:53.318Z,97861.78
2023-04-14T09:10:56.051Z,97869.53
2023-04-14T09:14:01.835Z,97870.81
2023-04-14T09:17:04.708Z,97868.00
2023-04-14T09:20:35.295Z,97866.72
2023-04-14T09:23:31.743Z,97858.78
2023-04-14T09:26:34.406Z,97856.22
2023-04-14T09:29:39.037Z,97856.22
2023-04-14T09:32:42.367Z,97864.38
2023-04-14T09:35:47.447Z,97867.09
2023-04-14T09:38:51.878Z,97865.34
2023-04-14T09:41:54.623Z,97858.28
2023-04-14T09:45:01.236Z,97857.66
2023-04-14T09:48:07.659Z,97862.09
2023-04-14T09:51:10.578Z,97864.13
2023-04-14T09:54:13.238Z,97868.88
2023-04-14T09:57:25.808Z,97861.16
2023-04-14T10:00:32.906Z,97861.88
2023-04-14T10:03:37.913Z,97853.53
2023-04-14T10:06:41.849Z,97846.63
2023-04-14T10:09:49.158Z,97844.69
2023-04-14T10:12:53.962Z,97840.16
2023-04-14T10:15:58.194Z,97840.59
2023-04-14T10:19:02.266Z,97830.34
2023-04-14T10:22:06.660Z,97826.22
2023-04-14T10:25:10.752Z,97821.75
2023-04-14T10:28:14.062Z,97810.25
2023-04-14T10:31:20.723Z,97802.31
2023-04-14T10:34:24.362Z,97808.38
2023-04-14T10:37:26.929Z,97814.91
2023-04-14T10:40:46.528Z,97796.38
2023-04-14T10:43:49.120Z,97798.78
2023-04-14T10:46:56.330Z,97799.75
2023-04-14T10:50:04.181Z,97794.16
2023-04-14T10:53:09.368Z,97800.41
2023-04-14T10:56:12.037Z,97780.44
2023-04-14T10:59:17.380Z,97782.47
2023-04-14T11:02:26.433Z,97783.47
2023-04-14T11:05:29.188Z,97771.09
2023-04-14T11:08:35.659Z,97764.69
2023-04-14T11:11:38.172Z,97754.34
2023-04-14T11:14:40.863Z,97755.19
2023-04-14T11:17:45.434Z,97754.41
2023-04-14T11:20:48.137Z,97753.25
2023-04-14T11:23:50.735Z,97753.94
2023-04-14T11:26:54.700Z,97748.47
2023-04-14T11:29:57.639Z,97748.16
2023-04-14T11:33:01.853Z,97748.56
2023-04-14T11:36:06.373Z,97741.53
2023-04-14T11:39:09.142Z,97744.19
2023-04-14T11:42:11.985Z,97736.63
2023-04-14T11:45:16.440Z,97735.34
2023-04-14T11:48:21.756Z,97742.59
2023-04-14T11:51:30.622Z,97742.06
2023-04-14T11:54:36.486Z,97737.16
2023-04-14T11:57:39.221Z,97738.25
2023-04-14T12:00:42.897Z,97735.25
2023-04-14T12:03:47.239Z,97728.38
2023-04-14T12:06:49.981Z,97723.97
2023-04-14T12:09:52.698Z,97722.91
2023-04-14T12:13:00.806Z,97720.34
2023-04-14T12:16:03.593Z,97708.22
2023-04-14T12:19:07.629Z,97706.69
2023-04-14T12:22:10.375Z,97700.44
2023-04-14T12:25:13.720Z,97696.47
2023-04-14T12:28:18.615Z,97680.44
2023-04-14T12:31:28.507Z,97674.78
2023-04-14T12:34:33.054Z,97676.03
2023-04-14T12:37:35.840Z,97667.88
2023-04-14T12:40:40.103Z,97662.31
2023-04-14T12:43:42.742Z,97663.56
2023-04-14T12:46:49.934Z,97653.97
2023-04-14T12:49:54.848Z,97651.19
2023-04-14T12:52:59.897Z,97649.00
2023-04-14T12:56:10.276Z,97653.22
2023-04-14T12:59:13.235Z,97652.63
2023-04-14T13:02:15.883Z,97630.09
2023-04-14T13:05:20.089Z,97635.28
2023-04-14T13:08:23.526Z,97629.47
2023-04-14T13:11:26.112Z,97628.44
2023-04-14T13:14:28.632Z,97620.28
2023-04-14T13:17:31.340Z,97614.22
2023-04-14T13:20:35.320Z,97607.19
2023-04-14T13:23:37.955Z,97593.81
2023-04-14T13:26:40.999Z,97583.56
2023-04-14T13:29:43.542Z,97573.19
2023-04-14T13:32:46.781Z,97574.31
2023-04-14T13:35:51.451Z,97578.31
2023-04-14T13:38:54.148Z,97557.88
2023-04-14T13:41:57.595Z,97553.97
2023-04-14T13:45:00.385Z,97552.38
2023-04-14T13:48:03.300Z,97547.41
2023-04-14T13:51:07.294Z,97546.94
2023-04-14T13:54:10.081Z,97538.81
2023-04-14T13:57:12.930Z,97531.03
2023-04-14T14:00:16.362Z,97518.06
2023-04-14T14:03:19.293Z,97519.53
2023-04-14T14:06:23.323Z,97517.63
2023-04-14T14:09:26.105Z,97508.03
2023-04-14T14:12:29.004Z,97515.25
2023-04-14T14:15:31.431Z,97508.31
2023-04-14T14:18:34.165Z,97503.56
2023-04-14T14:21:38.191Z,97498.94
2023-04-14T14:24:41.514Z,97498.63
2023-04-14T14:27:45.170Z,97496.19
2023-04-14T14:30:47.900Z,97497.88
2023-04-14T14:33:50.435Z,97490.63
2023-04-14T14:36:55.351Z,97492.38
2023-04-14T14:39:58.307Z,97497.16
2023-04-14T14:43:01.016Z,97488.31
2023-04-14T14:46:03.639Z,97489.00
2023-04-14T14:49:06.536Z,97482.50
2023-04-14T14:52:10.331Z,97500.31
2023-04-14T14:55:13.059Z,97494.53
2023-04-14T14:58:15.598Z,97481.06
2023-04-14T15:01:18.113Z,97489.78
2023-04-14T15:04:21.817Z,97486.78
2023-04-14T15:07:26.119Z,97498.47
2023-04-14T15:10:28.731Z,97494.69
2023-04-14T15:13:32.615Z,97492.91
2023-04-14T15:16:35.251Z,97487.84
2023-04-14T15:19:39.120Z,97489.75
2023-04-14T15:22:43.147Z,97486.66
2023-04-14T15:25:45.729Z,97487.59
2023-04-14T15:28:48.333Z,97499.00
2023-04-14T15:31:50.975Z,97491.75
2023-04-14T15:34:55.142Z,97495.66
2023-04-14T15:37:59.324Z,97505.88
2023-04-14T15:41:01.942Z,97496.53
2023-04-14T15:44:04.857Z,97488.47
2023-04-14T15:47:07.441Z,97487.34
2023-04-14T15:50:11.977Z,97487.06
2023-04-14T15:53:17.414Z,97482.94
2023-04-14T15:56:23.168Z,97489.91
2023-04-14T15:59:26.524Z,97487.47
2023-04-14T16:02:29.408Z,97483.81
2023-04-14T16:05:32.103Z,97476.88
2023-04-14T16:08:36.262Z,97484.69
2023-04-14T16:11:39.181Z,97488.81
2023-04-14T16:14:42.716Z,97490.31
2023-04-14T16:17:45.589Z,97484.56
2023-04-14T16:20:50.160Z,97485.50
2023-04-14T16:23:54.263Z,97490.31
2023-04-14T16:26:57.690Z,97476.50
2023-04-14T16:30:00.492Z,97489.69
2023-04-14T16:33:03.180Z,97489.50
2023-04-14T16:36:07.832Z,97479.53
2023-04-14T16:39:12.292Z,97489.81
2023-04-14T16:42:18.598Z,97490.50
2023-04-14T16:45:21.302Z,97486.50
2023-04-14T16:48:23.921Z,97487.94
2023-04-14T16:51:27.352Z,97493.25
2023-04-14T16:54:31.780Z,97479.88
2023-04-14T16:57:34.281Z,97481.44
2023-04-14T17:00:37.316Z,97472.44
2023-04-14T17:03:40.237Z,97484.69
2023-04-14T17:06:42.971Z,97481.84
2023-04-14T17:09:47.145Z,97488.72
2023-04-14T17:12:49.725Z,97495.84
2023-04-14T17:18:58.299Z,97489.38
2023-04-14T17:22:00.900Z,97484.84
2023-04-14T17:25:06.509Z,97494.88
2023-04-14T17:28:09.524Z,97492.31
2023-04-14T17:31:14.148Z,97495.59
2023-04-14T17:34:19.208Z,97494.16
2023-04-14T17:37:22.560Z,97498.13
2023-04-14T17:40:27.523Z,97498.88
2023-04-14T17:43:30.128Z,97500.53
2023-04-14T17:46:34.545Z,97497.50
2023-04-14T17:49:37.328Z,97496.72
2023-04-14T17:52:40.467Z,97503.88
2023-04-14T17:55:44.851Z,97495.19
2023-04-14T17:58:48.047Z,97502.28
2023-04-14T18:01:51.007Z,97502.47
2023-04-14T18:04:53.706Z,97504.88
2023-04-14T18:07:56.434Z,97510.06
2023-04-14T18:11:00.754Z,97512.25
2023-04-14T18:14:04.204Z,97514.19
2023-04-14T18:17:07.423Z,97518.41
2023-04-14T18:20:11.757Z,97513.19
2023-04-14T18:23:14.552Z,97517.84
2023-04-14T18:29:24.572Z,97535.66
2023-04-14T18:32:29.801Z,97536.50
2023-04-14T18:35:33.650Z,97540.44
2023-04-14T18:38:36.352Z,97544.56
2023-04-14T18:41:40.446Z,97551.41
2023-04-14T18:44:43.065Z,97549.63
2023-04-14T18:47:46.088Z,97551.31
2023-04-14T18:50:49.245Z,97556.91
2023-04-14T18:53:51.799Z,97557.84
2023-04-14T18:56:55.727Z,97560.78
2023-04-14T18:59:59.446Z,97563.78
2023-04-14T19:03:04.492Z,97569.81
2023-04-14T19:06:07.355Z,97565.03
2023-04-14T19:09:10.098Z,97569.56
2023-04-14T19:12:25.393Z,97577.63
2023-04-14T19:15:30.467Z,97580.09
2023-04-14T19:18:32.981Z,97582.50
2023-04-14T19:21:35.693Z,97584.53
2023-04-14T19:24:39.014Z,97590.09
2023-04-14T19:27:43.421Z,97589.59
2023-04-14T19:30:46.542Z,97592.19
2023-04-14T19:33:49.348Z,97598.50
2023-04-14T19:36:52.027Z,97593.94
2023-04-14T19:39:54.546Z,97598.25
2023-04-14T19:42:58.380Z,97594.16
2023-04-14T19:46:04.622Z,97584.00
2023-04-14T19:49:07.366Z,97585.47
2023-04-14T19:52:09.922Z,97587.16
2023-04-14T19:55:13.181Z,97591.81
2023-04-14T19:58:18.740Z,97589.81
2023-04-14T20:01:24.047Z,97591.75
2023-04-14T20:04:27.216Z,97588.34
2023-04-14T20:07:29.882Z,97592.31
2023-04-14T20:10:32.700Z,97590.34
2023-04-14T20:13:38.122Z,97584.44
2023-04-14T20:16:40.713Z,97579.41
2023-04-14T20:19:44.534Z,97586.44
2023-04-14T20:22:46.900Z,97588.66
2023-04-14T20:25:50.635Z,97574.53
2023-04-14T20:28:54.446Z,97577.63
2023-04-14T20:31:57.087Z,97579.75
2023-04-14T20:35:00.105Z,97575.94
2023-04-14T20:38:02.838Z,97572.34
2023-04-14T20:41:05.756Z,97576.91
2023-04-14T20:44:09.766Z,97574.66
2023-04-14T20:47:12.311Z,97577.06
2023-04-14T20:50:14.874Z,97580.34
2023-04-14T20:53:17.915Z,97575.28
2023-04-14T20:56:20.477Z,97575.75
2023-04-14T20:59:24.428Z,97573.22
2023-04-14T21:02:27.497Z,97570.03
2023-04-14T21:05:30.214Z,97574.69
2023-04-14T21:08:32.684Z,97574.59
2023-04-14T21:11:35.254Z,97581.16
2023-04-14T21:15:29.632Z,97581.81
2023-04-14T21:18:02.419Z,97574.13
2023-04-14T21:21:06.001Z,97583.06
2023-04-14T21:24:09.230Z,97579.28
2023-04-14T21:27:11.986Z,97580.53
2023-04-14T21:30:17.497Z,97589.25
2023-04-14T21:33:20.142Z,97583.19
2023-04-14T21:36:22.954Z,97590.59
2023-04-14T21:39:28.323Z,97583.28
2023-04-14T21:42:30.939Z,97581.41
2023-04-14T21:45:34.838Z,97574.59
2023-04-14T21:48:37.451Z,97578.13
2023-04-14T21:51:40.051Z,97579.56
2023-04-14T21:54:44.310Z,97582.28
2023-04-14T21:57:49.705Z,97573.50
2023-04-14T22:00:54.007Z,97580.03
2023-04-14T22:03:56.668Z,97580.69
2023-04-14T22:06:59.448Z,97579.75
2023-04-14T22:10:02.198Z,97582.13
2023-04-14T22:13:04.732Z,97584.03
2023-04-14T22:16:11.204Z,97583.91
2023-04-14T22:19:14.253Z,97588.53
2023-04-14T22:22:17.223Z,97585.50
2023-04-14T22:25:20.409Z,97589.63
2023-04-14T22:28:23.040Z,97592.97
2023-04-14T22:31:27.787Z,97594.44
2023-04-14T22:34:30.640Z,97595.22
2023-04-14T22:37:33.262Z,97599.38
2023-04-14T22:40:35.919Z,97608.63
2023-04-14T22:43:38.434Z,97602.25
2023-04-14T22:46:42.335Z,97598.41
2023-04-14T22:49:44.834Z,97596.97
2023-04-14T22:52:47.404Z,97601.13
2023-04-14T22:55:50.065Z,97601.59
2023-04-14T22:58:52.600Z,97607.50
2023-04-14T23:01:56.975Z,97603.97
2023-04-14T23:04:59.599Z,97606.47
2023-04-14T23:08:02.201Z,97607.13
2023-04-14T23:11:05.173Z,97610.16
2023-04-14T23:14:07.627Z,97605.69
2023-04-14T23:17:11.775Z,97609.38
2023-04-14T23:20:14.402Z,97601.38
2023-04-14T23:23:17.068Z,97610.44
2023-04-14T23:26:22.721Z,97610.00
2023-04-14T23:29:25.226Z,97610.00
2023-04-14T23:32:29.265Z,97608.38
2023-04-14T23:35:31.795Z,97603.91
2023-04-14T23:38:34.402Z,97591.50
2023-04-14T23:41:36.979Z,97590.22
2023-04-14T23:44:39.517Z,97590.97
2023-04-14T23:47:43.476Z,97595.91
2023-04-14T23:51:00.375Z,97592.53
2023-04-14T23:54:08.582Z,97594.34
2023-04-14T23:57:11.305Z,97589.06
